Date,TemperatureHighF,TemperatureAvgF,TemperatureLowF,DewpointHighF,DewpointAvgF,DewpointLowF,HumidityHigh,HumidityAvg,HumidityLow,PressureMaxIn,PressureMinIn,WindSpeedMaxMPH,WindSpeedAvgMPH,GustSpeedMaxMPH,PrecipitationSumIn
2013-2-1,66.6,56.6,50.1,56.1,49.5,42.1,94,77,49,30.23,30.15,8,2,13,0.00
2013-2-2,71.8,61.3,55.0,57.0,49.7,42.4,88,66,35,30.25,30.16,10,2,13,0.00
2013-2-3,63.4,56.1,48.9,57.3,51.5,45.2,94,85,69,30.20,30.05,7,2,11,0.00
2013-2-4,62.5,52.8,44.4,55.8,49.3,42.2,96,88,72,30.15,30.02,6,1,11,0.00
2013-2-5,58.7,54.1,48.9,53.9,50.9,47.2,95,89,83,30.15,30.05,4,1,7,0.00
2013-2-6,62.0,54.2,45.9,52.8,49.7,43.5,93,85,70,30.16,30.06,6,1,12,0.00
2013-2-7,61.0,51.3,43.8,51.9,46.0,41.3,92,82,68,30.20,30.03,9,2,13,0.00
2013-2-8,54.7,50.3,41.6,45.2,41.3,33.9,86,71,51,30.03,29.91,12,3,22,0.00
2013-2-9,59.1,49.3,39.2,46.6,39.3,33.2,82,69,52,30.15,29.98,6,1,12,0.00
2013-2-10,58.7,48.9,40.0,47.4,41.4,34.1,88,76,57,30.15,30.07,6,2,12,0.00
2013-2-11,62.3,49.2,38.9,48.4,39.6,34.8,90,71,43,30.30,30.12,7,3,13,0.00
2013-2-12,60.1,50.4,41.2,46.1,38.4,32.4,76,64,39,30.40,30.29,6,2,9,0.00
2013-2-13,62.0,50.7,40.7,53.9,43.2,35.0,82,76,53,30.33,30.18,9,3,12,0.00
2013-2-14,64.2,53.4,42.8,54.7,44.7,36.9,86,73,46,30.26,30.12,7,2,13,0.00
2013-2-15,86.2,67.5,50.1,45.5,33.5,19.8,72,32,12,30.23,30.15,6,1,10,0.00
2013-2-16,78.5,64.1,51.9,43.2,30.1,21.4,43,29,13,30.19,30.02,8,1,13,0.00
2013-2-17,62.3,54.2,43.6,55.3,43.3,29.3,90,68,43,30.07,29.97,6,1,10,0.00
2013-2-18,61.0,55.1,49.8,51.9,49.3,47.0,92,81,64,30.11,29.99,4,1,9,0.00
2013-2-19,58.2,52.4,47.0,51.8,46.9,36.9,92,82,64,30.02,29.78,9,2,16,0.24
2013-2-20,63.5,53.2,42.7,44.0,34.6,29.4,69,50,30,30.05,29.78,7,3,14,0.00
2013-2-21,59.2,50.1,39.4,46.8,37.8,30.8,72,63,48,30.16,30.03,6,2,12,0.00
2013-2-22,60.7,51.0,40.6,52.4,40.6,31.3,84,68,39,30.25,30.15,8,2,13,0.00
2013-2-23,65.3,53.3,41.7,53.7,41.9,28.6,83,67,31,30.22,29.94,7,2,12,0.00
2013-2-24,68.9,54.1,43.7,36.5,31.1,18.3,61,44,15,30.26,30.06,7,2,10,0.00
2013-2-25,63.5,52.1,42.3,51.5,38.6,26.6,86,62,34,30.28,30.12,9,2,14,0.00
2013-2-26,69.9,53.6,40.2,50.1,37.4,29.1,82,57,23,30.18,30.05,8,2,10,0.00
2013-2-27,73.7,59.4,48.3,37.2,25.4,19.6,44,29,14,30.34,30.17,8,2,16,0.00
2013-2-28,73.8,58.2,45.9,53.1,36.4,26.1,82,46,20,30.38,30.28,9,3,15,0.00